sensor_id;sensor_type;location;lat;lon;timestamp;P1;durP1;ratioP1;P2;durP2;ratioP2
21168;SDS011;10742;51.816;8.662;2022-10-15T00:01:07;1999.90;;;999.90;;
21168;SDS011;10742;51.816;8.662;2022-10-15T00:04:11;1999.90;;;999.90;;
21168;SDS011;10742;51.816;8.662;2022-10-15T00:07:14;1999.90;;;999.90;;
21168;SDS011;10742;51.816;8.662;2022-10-15T00:10:16;1999.90;;;999.90;;
21168;SDS011;10742;51.816;8.662;2022-10-15T00:13:18;1999.90;;;999.90;;
21168;SDS011;10742;51.816;8.662;2022-10-15T00:16:22;1999.90;;;999.90;;
21168;SDS011;10742;51.816;8.662;2022-10-15T00:19:26;1999.90;;;999.90;;
21168;SDS011;10742;51.816;8.662;2022-10-15T00:22:28;1999.90;;;999.90;;
21168;SDS011;10742;51.816;8.662;2022-10-15T00:25:30;1999.90;;;999.90;;
21168;SDS011;10742;51.816;8.662;2022-10-15T00:28:33;1999.90;;;999.90;;
21168;SDS011;10742;51.816;8.662;2022-10-15T00:31:35;1999.90;;;999.90;;
21168;SDS011;10742;51.816;8.662;2022-10-15T00:34:39;1999.90;;;999.90;;
21168;SDS011;10742;51.816;8.662;2022-10-15T00:38:00;1999.90;;;999.90;;
21168;SDS011;10742;51.816;8.662;2022-10-15T00:41:24;1999.90;;;999.90;;
21168;SDS011;10742;51.816;8.662;2022-10-15T00:44:57;1999.90;;;999.90;;
21168;SDS011;10742;51.816;8.662;2022-10-15T00:48:19;1999.90;;;999.90;;
21168;SDS011;10742;51.816;8.662;2022-10-15T00:51:42;1999.90;;;999.90;;
21168;SDS011;10742;51.816;8.662;2022-10-15T00:58:36;1999.90;;;999.90;;
21168;SDS011;10742;51.816;8.662;2022-10-15T01:01:58;1999.90;;;999.90;;
21168;SDS011;10742;51.816;8.662;2022-10-15T01:05:02;1999.90;;;999.90;;
21168;SDS011;10742;51.816;8.662;2022-10-15T01:08:05;1999.90;;;999.90;;
21168;SDS011;10742;51.816;8.662;2022-10-15T01:14:50;1999.90;;;999.90;;
21168;SDS011;10742;51.816;8.662;2022-10-15T01:18:07;1999.90;;;999.90;;
21168;SDS011;10742;51.816;8.662;2022-10-15T01:31:44;1999.90;;;999.90;;
21168;SDS011;10742;51.816;8.662;2022-10-15T01:41:31;1999.90;;;999.90;;
21168;SDS011;10742;51.816;8.662;2022-10-15T01:44:43;1999.90;;;999.90;;
21168;SDS011;10742;51.816;8.662;2022-10-15T01:48:06;1999.90;;;999.90;;
21168;SDS011;10742;51.816;8.662;2022-10-15T01:51:11;1999.90;;;999.90;;
21168;SDS011;10742;51.816;8.662;2022-10-15T01:54:17;1999.90;;;999.90;;
21168;SDS011;10742;51.816;8.662;2022-10-15T01:57:21;1999.90;;;999.90;;
21168;SDS011;10742;51.816;8.662;2022-10-15T02:00:27;1999.90;;;999.90;;
21168;SDS011;10742;51.816;8.662;2022-10-15T02:03:48;1999.90;;;999.90;;
21168;SDS011;10742;51.816;8.662;2022-10-15T02:06:54;1999.90;;;999.90;;
21168;SDS011;10742;51.816;8.662;2022-10-15T02:20:32;1999.90;;;977.53;;
21168;SDS011;10742;51.816;8.662;2022-10-15T02:23:40;1999.90;;;996.00;;
21168;SDS011;10742;51.816;8.662;2022-10-15T02:26:57;1999.90;;;979.53;;
21168;SDS011;10742;51.816;8.662;2022-10-15T02:30:05;1999.90;;;998.00;;
21168;SDS011;10742;51.816;8.662;2022-10-15T02:33:09;1999.90;;;999.90;;
21168;SDS011;10742;51.816;8.662;2022-10-15T02:36:13;1999.90;;;999.90;;
21168;SDS011;10742;51.816;8.662;2022-10-15T02:39:19;1999.90;;;999.90;;
21168;SDS011;10742;51.816;8.662;2022-10-15T02:42:24;1999.90;;;999.90;;
21168;SDS011;10742;51.816;8.662;2022-10-15T02:45:27;1999.90;;;999.90;;
21168;SDS011;10742;51.816;8.662;2022-10-15T02:48:30;1999.90;;;999.90;;
21168;SDS011;10742;51.816;8.662;2022-10-15T02:51:33;1999.90;;;999.90;;
21168;SDS011;10742;51.816;8.662;2022-10-15T02:54:36;1999.90;;;992.40;;
21168;SDS011;10742;51.816;8.662;2022-10-15T02:57:38;1999.90;;;997.73;;
21168;SDS011;10742;51.816;8.662;2022-10-15T03:00:42;1999.90;;;999.90;;
21168;SDS011;10742;51.816;8.662;2022-10-15T03:03:45;1999.90;;;999.90;;
21168;SDS011;10742;51.816;8.662;2022-10-15T03:06:47;1999.90;;;999.90;;
21168;SDS011;10742;51.816;8.662;2022-10-15T03:09:50;1999.90;;;999.90;;
21168;SDS011;10742;51.816;8.662;2022-10-15T03:12:52;1999.90;;;999.90;;
21168;SDS011;10742;51.816;8.662;2022-10-15T03:15:55;1999.90;;;999.90;;
21168;SDS011;10742;51.816;8.662;2022-10-15T03:18:57;1999.90;;;999.90;;
21168;SDS011;10742;51.816;8.662;2022-10-15T03:22:00;1999.90;;;999.90;;
21168;SDS011;10742;51.816;8.662;2022-10-15T03:25:13;1999.90;;;999.90;;
21168;SDS011;10742;51.816;8.662;2022-10-15T03:28:16;1999.90;;;999.90;;
21168;SDS011;10742;51.816;8.662;2022-10-15T03:31:18;1999.90;;;999.90;;
21168;SDS011;10742;51.816;8.662;2022-10-15T03:34:22;1999.90;;;999.90;;
21168;SDS011;10742;51.816;8.662;2022-10-15T03:37:25;1999.90;;;999.90;;
21168;SDS011;10742;51.816;8.662;2022-10-15T03:40:29;1999.90;;;999.90;;
21168;SDS011;10742;51.816;8.662;2022-10-15T03:43:44;1999.90;;;999.90;;
21168;SDS011;10742;51.816;8.662;2022-10-15T03:46:47;1999.90;;;999.90;;
21168;SDS011;10742;51.816;8.662;2022-10-15T03:49:52;1999.90;;;999.90;;
21168;SDS011;10742;51.816;8.662;2022-10-15T03:52:54;1999.90;;;999.90;;
21168;SDS011;10742;51.816;8.662;2022-10-15T03:56:01;1999.90;;;999.90;;
21168;SDS011;10742;51.816;8.662;2022-10-15T03:59:05;1999.90;;;999.90;;
21168;SDS011;10742;51.816;8.662;2022-10-15T04:02:07;1999.90;;;999.90;;
21168;SDS011;10742;51.816;8.662;2022-10-15T04:05:10;1999.90;;;999.90;;
21168;SDS011;10742;51.816;8.662;2022-10-15T04:08:16;1999.90;;;999.90;;
21168;SDS011;10742;51.816;8.662;2022-10-15T04:11:18;1999.90;;;999.90;;
21168;SDS011;10742;51.816;8.662;2022-10-15T04:14:30;1999.90;;;999.90;;
21168;SDS011;10742;51.816;8.662;2022-10-15T04:17:32;1999.90;;;999.90;;
21168;SDS011;10742;51.816;8.662;2022-10-15T04:20:35;1999.90;;;999.90;;
21168;SDS011;10742;51.816;8.662;2022-10-15T04:23:46;1999.90;;;999.90;;
21168;SDS011;10742;51.816;8.662;2022-10-15T04:27:22;1999.90;;;999.90;;
21168;SDS011;10742;51.816;8.662;2022-10-15T04:30:44;1999.90;;;999.90;;
21168;SDS011;10742;51.816;8.662;2022-10-15T04:34:06;1999.90;;;999.90;;
21168;SDS011;10742;51.816;8.662;2022-10-15T04:37:31;1999.90;;;999.90;;
21168;SDS011;10742;51.816;8.662;2022-10-15T04:40:59;1999.90;;;999.90;;
21168;SDS011;10742;51.816;8.662;2022-10-15T04:44:34;1999.90;;;999.90;;
21168;SDS011;10742;51.816;8.662;2022-10-15T04:47:55;1999.90;;;999.90;;
21168;SDS011;10742;51.816;8.662;2022-10-15T04:51:22;1999.90;;;999.90;;
21168;SDS011;10742;51.816;8.662;2022-10-15T04:55:05;1999.90;;;999.90;;
21168;SDS011;10742;51.816;8.662;2022-10-15T04:58:27;1999.90;;;999.90;;
21168;SDS011;10742;51.816;8.662;2022-10-15T05:01:50;1999.90;;;999.90;;
21168;SDS011;10742;51.816;8.662;2022-10-15T05:05:11;1999.90;;;999.90;;
21168;SDS011;10742;51.816;8.662;2022-10-15T05:08:22;1999.90;;;999.90;;
21168;SDS011;10742;51.816;8.662;2022-10-15T05:11:44;1999.90;;;999.90;;
21168;SDS011;10742;51.816;8.662;2022-10-15T05:14:47;1999.90;;;999.90;;
21168;SDS011;10742;51.816;8.662;2022-10-15T05:17:55;1999.90;;;999.90;;
21168;SDS011;10742;51.816;8.662;2022-10-15T05:21:07;1999.90;;;999.90;;
21168;SDS011;10742;51.816;8.662;2022-10-15T05:24:10;1999.90;;;999.90;;
21168;SDS011;10742;51.816;8.662;2022-10-15T05:27:23;1999.90;;;999.90;;
21168;SDS011;10742;51.816;8.662;2022-10-15T05:30:25;1999.90;;;999.90;;
21168;SDS011;10742;51.816;8.662;2022-10-15T05:33:30;1999.90;;;999.90;;
21168;SDS011;10742;51.816;8.662;2022-10-15T05:36:32;1999.90;;;999.90;;
21168;SDS011;10742;51.816;8.662;2022-10-15T05:39:35;1999.90;;;999.90;;
21168;SDS011;10742;51.816;8.662;2022-10-15T05:42:37;1999.90;;;999.90;;
21168;SDS011;10742;51.816;8.662;2022-10-15T05:45:40;1999.90;;;999.90;;
21168;SDS011;10742;51.816;8.662;2022-10-15T05:48:46;1999.90;;;999.90;;
21168;SDS011;10742;51.816;8.662;2022-10-15T05:51:56;1999.90;;;999.90;;
21168;SDS011;10742;51.816;8.662;2022-10-15T05:55:15;1999.90;;;999.90;;
21168;SDS011;10742;51.816;8.662;2022-10-15T05:58:17;1999.90;;;999.90;;
21168;SDS011;10742;51.816;8.662;2022-10-15T06:01:39;1999.90;;;999.90;;
21168;SDS011;10742;51.816;8.662;2022-10-15T06:05:00;1999.90;;;999.90;;
21168;SDS011;10742;51.816;8.662;2022-10-15T06:08:02;1999.90;;;999.90;;
21168;SDS011;10742;51.816;8.662;2022-10-15T06:11:04;1999.90;;;999.90;;
21168;SDS011;10742;51.816;8.662;2022-10-15T06:14:07;1999.90;;;999.90;;
21168;SDS011;10742;51.816;8.662;2022-10-15T06:17:09;1999.90;;;999.90;;
21168;SDS011;10742;51.816;8.662;2022-10-15T06:20:16;1999.90;;;999.90;;
21168;SDS011;10742;51.816;8.662;2022-10-15T06:23:18;1999.90;;;999.90;;
21168;SDS011;10742;51.816;8.662;2022-10-15T06:26:21;1999.90;;;999.90;;
21168;SDS011;10742;51.816;8.662;2022-10-15T06:29:23;1999.90;;;999.90;;
21168;SDS011;10742;51.816;8.662;2022-10-15T06:32:28;1999.90;;;999.90;;
21168;SDS011;10742;51.816;8.662;2022-10-15T06:35:30;1999.90;;;999.90;;
21168;SDS011;10742;51.816;8.662;2022-10-15T06:38:36;1999.90;;;999.90;;
21168;SDS011;10742;51.816;8.662;2022-10-15T06:41:39;1999.90;;;999.90;;
21168;SDS011;10742;51.816;8.662;2022-10-15T06:44:42;1999.90;;;999.90;;
21168;SDS011;10742;51.816;8.662;2022-10-15T06:47:44;1999.90;;;999.90;;
21168;SDS011;10742;51.816;8.662;2022-10-15T06:50:47;1999.90;;;999.90;;
21168;SDS011;10742;51.816;8.662;2022-10-15T06:53:49;1999.90;;;999.90;;
21168;SDS011;10742;51.816;8.662;2022-10-15T06:56:51;1999.90;;;999.90;;
21168;SDS011;10742;51.816;8.662;2022-10-15T06:59:54;1999.90;;;999.90;;
21168;SDS011;10742;51.816;8.662;2022-10-15T07:03:01;1999.90;;;999.90;;
21168;SDS011;10742;51.816;8.662;2022-10-15T07:06:04;1999.90;;;999.90;;
21168;SDS011;10742;51.816;8.662;2022-10-15T07:09:08;1999.90;;;999.90;;
21168;SDS011;10742;51.816;8.662;2022-10-15T07:12:11;1999.90;;;999.90;;
21168;SDS011;10742;51.816;8.662;2022-10-15T07:15:13;1999.90;;;999.90;;
21168;SDS011;10742;51.816;8.662;2022-10-15T07:18:15;1999.90;;;999.90;;
21168;SDS011;10742;51.816;8.662;2022-10-15T07:21:18;1999.90;;;999.90;;
21168;SDS011;10742;51.816;8.662;2022-10-15T07:24:20;1999.90;;;999.90;;
21168;SDS011;10742;51.816;8.662;2022-10-15T07:27:22;1999.90;;;999.90;;
21168;SDS011;10742;51.816;8.662;2022-10-15T07:30:25;1999.90;;;999.90;;
21168;SDS011;10742;51.816;8.662;2022-10-15T07:33:29;1999.90;;;999.90;;
21168;SDS011;10742;51.816;8.662;2022-10-15T07:36:34;1999.90;;;999.90;;
21168;SDS011;10742;51.816;8.662;2022-10-15T07:39:36;1999.90;;;999.90;;
21168;SDS011;10742;51.816;8.662;2022-10-15T07:42:39;1999.90;;;999.90;;
21168;SDS011;10742;51.816;8.662;2022-10-15T07:45:45;1999.90;;;999.90;;
21168;SDS011;10742;51.816;8.662;2022-10-15T07:48:50;1999.90;;;999.90;;
21168;SDS011;10742;51.816;8.662;2022-10-15T07:51:52;1999.90;;;999.90;;
21168;SDS011;10742;51.816;8.662;2022-10-15T07:54:55;1999.90;;;999.90;;
21168;SDS011;10742;51.816;8.662;2022-10-15T07:57:57;1999.90;;;999.90;;
21168;SDS011;10742;51.816;8.662;2022-10-15T08:01:06;1999.90;;;999.90;;
21168;SDS011;10742;51.816;8.662;2022-10-15T08:04:10;1999.90;;;999.90;;
21168;SDS011;10742;51.816;8.662;2022-10-15T08:07:14;1999.90;;;999.90;;
21168;SDS011;10742;51.816;8.662;2022-10-15T08:10:16;1999.90;;;999.90;;
21168;SDS011;10742;51.816;8.662;2022-10-15T08:13:19;1999.90;;;999.90;;
21168;SDS011;10742;51.816;8.662;2022-10-15T08:16:24;1999.90;;;999.90;;
21168;SDS011;10742;51.816;8.662;2022-10-15T08:19:31;1999.90;;;999.90;;
21168;SDS011;10742;51.816;8.662;2022-10-15T08:22:34;1999.90;;;999.90;;
21168;SDS011;10742;51.816;8.662;2022-10-15T08:25:36;1999.90;;;999.90;;
21168;SDS011;10742;51.816;8.662;2022-10-15T08:28:39;1999.90;;;999.90;;
21168;SDS011;10742;51.816;8.662;2022-10-15T08:31:41;1999.90;;;999.90;;
21168;SDS011;10742;51.816;8.662;2022-10-15T08:34:43;1999.90;;;999.90;;
21168;SDS011;10742;51.816;8.662;2022-10-15T08:37:46;1999.90;;;999.90;;
21168;SDS011;10742;51.816;8.662;2022-10-15T08:40:53;1999.90;;;999.90;;
21168;SDS011;10742;51.816;8.662;2022-10-15T08:43:56;1999.90;;;999.90;;
21168;SDS011;10742;51.816;8.662;2022-10-15T08:50:16;1999.90;;;999.90;;
21168;SDS011;10742;51.816;8.662;2022-10-15T08:53:26;1999.90;;;999.90;;
21168;SDS011;10742;51.816;8.662;2022-10-15T08:56:36;1999.90;;;999.90;;
21168;SDS011;10742;51.816;8.662;2022-10-15T08:59:44;1999.90;;;999.90;;
21168;SDS011;10742;51.816;8.662;2022-10-15T09:03:01;1999.90;;;999.90;;
21168;SDS011;10742;51.816;8.662;2022-10-15T09:09:33;1999.90;;;999.90;;
21168;SDS011;10742;51.816;8.662;2022-10-15T09:12:49;1999.90;;;939.08;;
21168;SDS011;10742;51.816;8.662;2022-10-15T09:16:16;1999.90;;;790.70;;
21168;SDS011;10742;51.816;8.662;2022-10-15T09:19:33;1999.90;;;816.38;;
21168;SDS011;10742;51.816;8.662;2022-10-15T09:22:41;1999.90;;;724.85;;
21168;SDS011;10742;51.816;8.662;2022-10-15T09:25:44;1999.90;;;719.83;;
21168;SDS011;10742;51.816;8.662;2022-10-15T09:32:35;1999.90;;;559.10;;
21168;SDS011;10742;51.816;8.662;2022-10-15T09:39:42;1918.53;;;473.90;;
21168;SDS011;10742;51.816;8.662;2022-10-15T09:43:07;1873.97;;;440.38;;
21168;SDS011;10742;51.816;8.662;2022-10-15T09:46:12;1668.13;;;401.23;;
21168;SDS011;10742;51.816;8.662;2022-10-15T09:49:15;948.30;;;259.90;;
21168;SDS011;10742;51.816;8.662;2022-10-15T10:02:00;660.75;;;187.00;;
21168;SDS011;10742;51.816;8.662;2022-10-15T10:05:27;340.58;;;98.57;;
21168;SDS011;10742;51.816;8.662;2022-10-15T10:08:37;350.88;;;94.65;;
21168;SDS011;10742;51.816;8.662;2022-10-15T10:12:01;531.80;;;157.20;;
21168;SDS011;10742;51.816;8.662;2022-10-15T10:15:09;382.10;;;106.32;;
21168;SDS011;10742;51.816;8.662;2022-10-15T10:18:39;153.65;;;46.80;;
21168;SDS011;10742;51.816;8.662;2022-10-15T10:21:53;122.10;;;38.67;;
21168;SDS011;10742;51.816;8.662;2022-10-15T10:25:28;107.47;;;39.15;;
21168;SDS011;10742;51.816;8.662;2022-10-15T10:31:48;93.38;;;27.75;;
21168;SDS011;10742;51.816;8.662;2022-10-15T10:35:13;80.57;;;24.35;;
21168;SDS011;10742;51.816;8.662;2022-10-15T10:38:23;63.75;;;19.33;;
21168;SDS011;10742;51.816;8.662;2022-10-15T10:41:49;20.63;;;11.65;;
21168;SDS011;10742;51.816;8.662;2022-10-15T10:45:05;28.10;;;12.88;;
21168;SDS011;10742;51.816;8.662;2022-10-15T10:48:21;17.77;;;9.35;;
21168;SDS011;10742;51.816;8.662;2022-10-15T10:51:26;17.00;;;8.57;;
21168;SDS011;10742;51.816;8.662;2022-10-15T10:54:30;17.75;;;9.55;;
21168;SDS011;10742;51.816;8.662;2022-10-15T10:57:37;17.63;;;7.40;;
21168;SDS011;10742;51.816;8.662;2022-10-15T11:00:56;10.60;;;6.53;;
21168;SDS011;10742;51.816;8.662;2022-10-15T11:03:59;11.70;;;5.82;;
21168;SDS011;10742;51.816;8.662;2022-10-15T11:10:36;7.22;;;5.38;;
21168;SDS011;10742;51.816;8.662;2022-10-15T11:13:59;8.98;;;4.90;;
21168;SDS011;10742;51.816;8.662;2022-10-15T11:17:43;6.30;;;4.30;;
21168;SDS011;10742;51.816;8.662;2022-10-15T11:41:38;5.20;;;3.35;;
21168;SDS011;10742;51.816;8.662;2022-10-15T11:45:47;6.65;;;3.50;;
21168;SDS011;10742;51.816;8.662;2022-10-15T11:48:53;2.97;;;2.65;;
21168;SDS011;10742;51.816;8.662;2022-10-15T12:02:35;2.63;;;2.00;;
21168;SDS011;10742;51.816;8.662;2022-10-15T12:05:39;2.33;;;2.13;;
21168;SDS011;10742;51.816;8.662;2022-10-15T12:08:47;3.35;;;2.08;;
21168;SDS011;10742;51.816;8.662;2022-10-15T12:11:54;2.20;;;2.00;;
21168;SDS011;10742;51.816;8.662;2022-10-15T12:15:14;2.10;;;1.98;;
21168;SDS011;10742;51.816;8.662;2022-10-15T12:18:34;3.17;;;1.70;;
21168;SDS011;10742;51.816;8.662;2022-10-15T12:24:57;2.10;;;1.90;;
21168;SDS011;10742;51.816;8.662;2022-10-15T12:28:03;2.22;;;2.00;;
21168;SDS011;10742;51.816;8.662;2022-10-15T12:31:10;1.85;;;1.75;;
21168;SDS011;10742;51.816;8.662;2022-10-15T12:37:42;2.15;;;1.90;;
21168;SDS011;10742;51.816;8.662;2022-10-15T12:40:52;2.08;;;1.90;;
21168;SDS011;10742;51.816;8.662;2022-10-15T12:44:19;2.00;;;1.90;;
21168;SDS011;10742;51.816;8.662;2022-10-15T12:54:32;2.15;;;2.05;;
21168;SDS011;10742;51.816;8.662;2022-10-15T13:00:49;4.72;;;3.58;;
21168;SDS011;10742;51.816;8.662;2022-10-15T13:04:14;17.13;;;7.25;;
21168;SDS011;10742;51.816;8.662;2022-10-15T13:07:43;29.95;;;12.70;;
21168;SDS011;10742;51.816;8.662;2022-10-15T13:11:11;34.88;;;14.90;;
21168;SDS011;10742;51.816;8.662;2022-10-15T13:14:50;49.80;;;17.73;;
21168;SDS011;10742;51.816;8.662;2022-10-15T13:18:07;81.85;;;24.77;;
21168;SDS011;10742;51.816;8.662;2022-10-15T13:21:13;163.57;;;40.20;;
21168;SDS011;10742;51.816;8.662;2022-10-15T13:24:23;191.27;;;50.83;;
21168;SDS011;10742;51.816;8.662;2022-10-15T13:27:28;276.58;;;78.30;;
21168;SDS011;10742;51.816;8.662;2022-10-15T13:30:32;111.75;;;35.38;;
21168;SDS011;10742;51.816;8.662;2022-10-15T13:33:38;52.70;;;18.98;;
21168;SDS011;10742;51.816;8.662;2022-10-15T13:36:46;71.22;;;25.13;;
21168;SDS011;10742;51.816;8.662;2022-10-15T13:39:50;57.22;;;19.08;;
21168;SDS011;10742;51.816;8.662;2022-10-15T13:43:03;65.75;;;23.15;;
21168;SDS011;10742;51.816;8.662;2022-10-15T13:46:09;47.15;;;17.48;;
21168;SDS011;10742;51.816;8.662;2022-10-15T13:49:16;48.80;;;18.40;;
21168;SDS011;10742;51.816;8.662;2022-10-15T13:52:20;45.65;;;17.00;;
21168;SDS011;10742;51.816;8.662;2022-10-15T13:55:24;29.45;;;15.23;;
21168;SDS011;10742;51.816;8.662;2022-10-15T13:58:50;32.17;;;16.63;;
21168;SDS011;10742;51.816;8.662;2022-10-15T14:02:11;38.03;;;14.90;;
21168;SDS011;10742;51.816;8.662;2022-10-15T14:05:34;22.67;;;11.68;;
21168;SDS011;10742;51.816;8.662;2022-10-15T14:08:57;29.15;;;12.30;;
21168;SDS011;10742;51.816;8.662;2022-10-15T14:12:18;34.78;;;14.23;;
21168;SDS011;10742;51.816;8.662;2022-10-15T14:15:40;32.55;;;12.93;;
21168;SDS011;10742;51.816;8.662;2022-10-15T14:18:48;30.42;;;10.40;;
21168;SDS011;10742;51.816;8.662;2022-10-15T14:21:53;57.13;;;20.10;;
21168;SDS011;10742;51.816;8.662;2022-10-15T14:24:57;42.47;;;16.73;;
21168;SDS011;10742;51.816;8.662;2022-10-15T14:28:00;126.10;;;39.25;;
21168;SDS011;10742;51.816;8.662;2022-10-15T14:31:02;61.50;;;23.38;;
21168;SDS011;10742;51.816;8.662;2022-10-15T14:37:41;73.15;;;27.45;;
21168;SDS011;10742;51.816;8.662;2022-10-15T14:44:22;161.88;;;51.33;;
21168;SDS011;10742;51.816;8.662;2022-10-15T14:47:25;98.35;;;30.75;;
21168;SDS011;10742;51.816;8.662;2022-10-15T14:50:33;198.32;;;49.13;;
21168;SDS011;10742;51.816;8.662;2022-10-15T14:53:43;91.97;;;33.95;;
21168;SDS011;10742;51.816;8.662;2022-10-15T14:56:47;138.00;;;41.45;;
21168;SDS011;10742;51.816;8.662;2022-10-15T14:59:52;176.27;;;49.50;;
21168;SDS011;10742;51.816;8.662;2022-10-15T15:02:57;102.38;;;29.75;;
21168;SDS011;10742;51.816;8.662;2022-10-15T15:06:02;166.85;;;46.17;;
21168;SDS011;10742;51.816;8.662;2022-10-15T15:09:06;192.23;;;46.22;;
21168;SDS011;10742;51.816;8.662;2022-10-15T15:12:11;222.40;;;63.55;;
21168;SDS011;10742;51.816;8.662;2022-10-15T15:15:21;183.18;;;49.95;;
21168;SDS011;10742;51.816;8.662;2022-10-15T15:18:25;176.05;;;49.28;;
21168;SDS011;10742;51.816;8.662;2022-10-15T15:21:29;202.88;;;52.45;;
21168;SDS011;10742;51.816;8.662;2022-10-15T15:24:31;200.38;;;56.15;;
21168;SDS011;10742;51.816;8.662;2022-10-15T15:27:34;215.50;;;53.67;;
21168;SDS011;10742;51.816;8.662;2022-10-15T15:30:39;158.20;;;44.33;;
21168;SDS011;10742;51.816;8.662;2022-10-15T15:33:43;142.88;;;40.30;;
21168;SDS011;10742;51.816;8.662;2022-10-15T15:36:47;199.27;;;54.45;;
21168;SDS011;10742;51.816;8.662;2022-10-15T15:39:49;222.93;;;61.35;;
21168;SDS011;10742;51.816;8.662;2022-10-15T15:42:53;249.38;;;71.70;;
21168;SDS011;10742;51.816;8.662;2022-10-15T15:45:57;321.42;;;91.22;;
21168;SDS011;10742;51.816;8.662;2022-10-15T15:48:59;396.42;;;118.20;;
21168;SDS011;10742;51.816;8.662;2022-10-15T15:52:04;426.25;;;126.20;;
21168;SDS011;10742;51.816;8.662;2022-10-15T15:55:14;459.40;;;129.80;;
21168;SDS011;10742;51.816;8.662;2022-10-15T15:58:20;461.63;;;123.47;;
21168;SDS011;10742;51.816;8.662;2022-10-15T16:01:23;396.45;;;111.72;;
21168;SDS011;10742;51.816;8.662;2022-10-15T16:04:26;376.02;;;100.20;;
21168;SDS011;10742;51.816;8.662;2022-10-15T16:07:28;407.10;;;119.22;;
21168;SDS011;10742;51.816;8.662;2022-10-15T16:10:31;406.13;;;120.63;;
21168;SDS011;10742;51.816;8.662;2022-10-15T16:13:35;472.23;;;139.27;;
21168;SDS011;10742;51.816;8.662;2022-10-15T16:16:38;511.38;;;152.63;;
21168;SDS011;10742;51.816;8.662;2022-10-15T16:19:41;588.53;;;163.27;;
21168;SDS011;10742;51.816;8.662;2022-10-15T16:22:44;671.17;;;182.07;;
21168;SDS011;10742;51.816;8.662;2022-10-15T16:25:50;806.45;;;204.18;;
21168;SDS011;10742;51.816;8.662;2022-10-15T16:28:55;777.03;;;202.98;;
21168;SDS011;10742;51.816;8.662;2022-10-15T16:31:57;909.28;;;233.32;;
21168;SDS011;10742;51.816;8.662;2022-10-15T16:35:00;951.63;;;261.92;;
21168;SDS011;10742;51.816;8.662;2022-10-15T16:38:04;973.60;;;263.00;;
21168;SDS011;10742;51.816;8.662;2022-10-15T16:41:07;1018.15;;;282.35;;
21168;SDS011;10742;51.816;8.662;2022-10-15T16:44:11;1311.13;;;326.95;;
21168;SDS011;10742;51.816;8.662;2022-10-15T16:47:13;1282.15;;;334.75;;
21168;SDS011;10742;51.816;8.662;2022-10-15T16:50:16;1503.45;;;361.35;;
21168;SDS011;10742;51.816;8.662;2022-10-15T16:53:19;1489.68;;;368.40;;
21168;SDS011;10742;51.816;8.662;2022-10-15T16:56:22;1789.53;;;416.30;;
21168;SDS011;10742;51.816;8.662;2022-10-15T16:59:27;1933.10;;;434.47;;
21168;SDS011;10742;51.816;8.662;2022-10-15T17:02:29;1870.10;;;437.25;;
21168;SDS011;10742;51.816;8.662;2022-10-15T17:05:32;1870.72;;;424.42;;
21168;SDS011;10742;51.816;8.662;2022-10-15T17:08:39;1678.63;;;405.88;;
21168;SDS011;10742;51.816;8.662;2022-10-15T17:11:44;1746.43;;;407.33;;
21168;SDS011;10742;51.816;8.662;2022-10-15T17:14:51;1611.45;;;376.42;;
21168;SDS011;10742;51.816;8.662;2022-10-15T17:17:53;1559.32;;;382.45;;
21168;SDS011;10742;51.816;8.662;2022-10-15T17:20:56;1771.47;;;424.67;;
21168;SDS011;10742;51.816;8.662;2022-10-15T17:23:59;1954.13;;;460.63;;
21168;SDS011;10742;51.816;8.662;2022-10-15T17:27:03;1999.90;;;579.72;;
21168;SDS011;10742;51.816;8.662;2022-10-15T17:30:06;1999.90;;;691.55;;
21168;SDS011;10742;51.816;8.662;2022-10-15T17:33:10;1999.90;;;841.17;;
21168;SDS011;10742;51.816;8.662;2022-10-15T17:36:13;1999.90;;;886.65;;
21168;SDS011;10742;51.816;8.662;2022-10-15T17:39:19;1999.90;;;920.70;;
21168;SDS011;10742;51.816;8.662;2022-10-15T17:42:23;1999.90;;;951.20;;
21168;SDS011;10742;51.816;8.662;2022-10-15T17:45:26;1999.90;;;933.20;;
21168;SDS011;10742;51.816;8.662;2022-10-15T17:48:28;1999.90;;;926.78;;
21168;SDS011;10742;51.816;8.662;2022-10-15T17:51:31;1999.90;;;938.35;;
21168;SDS011;10742;51.816;8.662;2022-10-15T17:54:36;1999.90;;;972.70;;
21168;SDS011;10742;51.816;8.662;2022-10-15T17:57:38;1999.90;;;999.90;;
21168;SDS011;10742;51.816;8.662;2022-10-15T18:00:42;1999.90;;;999.90;;
21168;SDS011;10742;51.816;8.662;2022-10-15T18:03:45;1999.90;;;999.90;;
21168;SDS011;10742;51.816;8.662;2022-10-15T18:06:52;1999.90;;;999.90;;
21168;SDS011;10742;51.816;8.662;2022-10-15T18:09:58;1999.90;;;999.90;;
21168;SDS011;10742;51.816;8.662;2022-10-15T18:13:02;1999.90;;;999.90;;
21168;SDS011;10742;51.816;8.662;2022-10-15T18:16:06;1999.90;;;999.90;;
21168;SDS011;10742;51.816;8.662;2022-10-15T18:19:09;1999.90;;;999.90;;
21168;SDS011;10742;51.816;8.662;2022-10-15T18:22:12;1999.90;;;999.90;;
21168;SDS011;10742;51.816;8.662;2022-10-15T18:25:15;1999.90;;;999.90;;
21168;SDS011;10742;51.816;8.662;2022-10-15T18:28:17;1999.90;;;999.90;;
21168;SDS011;10742;51.816;8.662;2022-10-15T18:31:21;1999.90;;;999.90;;
21168;SDS011;10742;51.816;8.662;2022-10-15T18:34:45;1999.90;;;999.90;;
21168;SDS011;10742;51.816;8.662;2022-10-15T18:38:07;1999.90;;;999.90;;
21168;SDS011;10742;51.816;8.662;2022-10-15T18:41:30;1999.90;;;999.90;;
21168;SDS011;10742;51.816;8.662;2022-10-15T18:44:53;1999.90;;;999.90;;
21168;SDS011;10742;51.816;8.662;2022-10-15T18:48:14;1999.90;;;999.90;;
21168;SDS011;10742;51.816;8.662;2022-10-15T18:51:36;1999.90;;;999.90;;
21168;SDS011;10742;51.816;8.662;2022-10-15T18:54:58;1999.90;;;999.90;;
21168;SDS011;10742;51.816;8.662;2022-10-15T18:58:19;1999.90;;;999.90;;
21168;SDS011;10742;51.816;8.662;2022-10-15T19:01:23;1999.90;;;999.90;;
21168;SDS011;10742;51.816;8.662;2022-10-15T19:04:26;1999.90;;;999.90;;
21168;SDS011;10742;51.816;8.662;2022-10-15T19:07:29;1999.90;;;999.90;;
21168;SDS011;10742;51.816;8.662;2022-10-15T19:10:33;1999.90;;;999.90;;
21168;SDS011;10742;51.816;8.662;2022-10-15T19:13:35;1999.90;;;999.90;;
21168;SDS011;10742;51.816;8.662;2022-10-15T19:16:38;1999.90;;;999.90;;
21168;SDS011;10742;51.816;8.662;2022-10-15T19:19:43;1999.90;;;999.90;;
21168;SDS011;10742;51.816;8.662;2022-10-15T19:22:50;1999.90;;;999.90;;
21168;SDS011;10742;51.816;8.662;2022-10-15T19:25:54;1999.90;;;999.90;;
21168;SDS011;10742;51.816;8.662;2022-10-15T19:28:58;1999.90;;;999.90;;
21168;SDS011;10742;51.816;8.662;2022-10-15T19:32:01;1999.90;;;999.90;;
21168;SDS011;10742;51.816;8.662;2022-10-15T19:35:04;1999.90;;;999.90;;
21168;SDS011;10742;51.816;8.662;2022-10-15T19:38:07;1999.90;;;999.90;;
21168;SDS011;10742;51.816;8.662;2022-10-15T19:41:10;1999.90;;;999.90;;
21168;SDS011;10742;51.816;8.662;2022-10-15T19:44:13;1999.90;;;999.90;;
21168;SDS011;10742;51.816;8.662;2022-10-15T19:47:17;1999.90;;;999.90;;
21168;SDS011;10742;51.816;8.662;2022-10-15T19:50:21;1999.90;;;999.90;;